sensor_id;sensor_type;location;lat;lon;timestamp;P1;durP1;ratioP1;P2;durP2;ratioP2
35977;SDS011;22056;0.000;0.000;2023-03-01T00:00:21;2.03;;;0.80;;
35977;SDS011;22056;0.000;0.000;2023-03-01T00:02:48;4.45;;;0.80;;
35977;SDS011;22056;0.000;0.000;2023-03-01T00:05:14;1.73;;;0.75;;
35977;SDS011;22056;0.000;0.000;2023-03-01T00:07:40;2.42;;;0.98;;
35977;SDS011;22056;0.000;0.000;2023-03-01T00:10:06;2.08;;;0.63;;
35977;SDS011;22056;0.000;0.000;2023-03-01T00:12:32;1.23;;;0.63;;
35977;SDS011;22056;0.000;0.000;2023-03-01T00:14:58;2.67;;;0.70;;
35977;SDS011;22056;0.000;0.000;2023-03-01T00:17:24;2.53;;;1.00;;
35977;SDS011;22056;0.000;0.000;2023-03-01T00:19:50;1.05;;;0.70;;
35977;SDS011;22056;0.000;0.000;2023-03-01T00:22:17;3.17;;;0.80;;
35977;SDS011;22056;0.000;0.000;2023-03-01T00:24:43;0.80;;;0.55;;
35977;SDS011;22056;0.000;0.000;2023-03-01T00:27:09;2.67;;;0.70;;
35977;SDS011;22056;0.000;0.000;2023-03-01T00:29:35;2.08;;;0.77;;
35977;SDS011;22056;0.000;0.000;2023-03-01T00:32:01;1.42;;;0.68;;
35977;SDS011;22056;0.000;0.000;2023-03-01T00:34:27;1.58;;;0.63;;
35977;SDS011;22056;0.000;0.000;2023-03-01T00:36:53;1.35;;;0.73;;
35977;SDS011;22056;0.000;0.000;2023-03-01T00:39:19;0.98;;;0.60;;
35977;SDS011;22056;0.000;0.000;2023-03-01T00:41:45;2.15;;;0.70;;
35977;SDS011;22056;0.000;0.000;2023-03-01T00:44:11;2.67;;;0.65;;
35977;SDS011;22056;0.000;0.000;2023-03-01T00:46:38;2.92;;;0.88;;
35977;SDS011;22056;0.000;0.000;2023-03-01T00:49:04;2.15;;;0.60;;
35977;SDS011;22056;0.000;0.000;2023-03-01T00:51:30;2.42;;;0.60;;
35977;SDS011;22056;0.000;0.000;2023-03-01T00:53:57;1.73;;;0.65;;
35977;SDS011;22056;0.000;0.000;2023-03-01T00:56:24;1.25;;;0.68;;
35977;SDS011;22056;0.000;0.000;2023-03-01T00:58:50;5.75;;;0.73;;
35977;SDS011;22056;0.000;0.000;2023-03-01T01:01:20;3.33;;;0.60;;
35977;SDS011;22056;0.000;0.000;2023-03-01T01:03:48;0.82;;;0.50;;
35977;SDS011;22056;0.000;0.000;2023-03-01T01:06:22;1.13;;;0.50;;
35977;SDS011;22056;0.000;0.000;2023-03-01T01:08:49;1.17;;;0.65;;
35977;SDS011;22056;0.000;0.000;2023-03-01T01:11:15;3.53;;;0.88;;
35977;SDS011;22056;0.000;0.000;2023-03-01T01:13:43;1.05;;;0.43;;
35977;SDS011;22056;0.000;0.000;2023-03-01T01:16:09;3.25;;;0.70;;
35977;SDS011;22056;0.000;0.000;2023-03-01T01:18:35;0.73;;;0.50;;
35977;SDS011;22056;0.000;0.000;2023-03-01T01:21:08;1.13;;;0.60;;
35977;SDS011;22056;0.000;0.000;2023-03-01T01:23:36;1.27;;;0.60;;
35977;SDS011;22056;0.000;0.000;2023-03-01T01:26:03;1.23;;;0.50;;
35977;SDS011;22056;0.000;0.000;2023-03-01T01:28:29;2.45;;;0.65;;
35977;SDS011;22056;0.000;0.000;2023-03-01T01:30:56;1.42;;;0.80;;
35977;SDS011;22056;0.000;0.000;2023-03-01T01:33:22;1.60;;;0.60;;
35977;SDS011;22056;0.000;0.000;2023-03-01T01:35:48;1.23;;;0.50;;
35977;SDS011;22056;0.000;0.000;2023-03-01T01:38:14;2.13;;;0.73;;
35977;SDS011;22056;0.000;0.000;2023-03-01T01:40:44;1.05;;;0.50;;
35977;SDS011;22056;0.000;0.000;2023-03-01T01:43:21;1.58;;;0.52;;
35977;SDS011;22056;0.000;0.000;2023-03-01T01:45:47;3.15;;;0.60;;
35977;SDS011;22056;0.000;0.000;2023-03-01T01:48:16;1.08;;;0.50;;
35977;SDS011;22056;0.000;0.000;2023-03-01T01:50:42;1.50;;;0.50;;
35977;SDS011;22056;0.000;0.000;2023-03-01T01:53:14;1.25;;;0.70;;
35977;SDS011;22056;0.000;0.000;2023-03-01T01:55:43;1.33;;;0.52;;
35977;SDS011;22056;0.000;0.000;2023-03-01T01:58:11;1.20;;;0.60;;
35977;SDS011;22056;0.000;0.000;2023-03-01T02:00:39;0.88;;;0.60;;
35977;SDS011;22056;0.000;0.000;2023-03-01T02:08:41;0.77;;;0.50;;
35977;SDS011;22056;0.000;0.000;2023-03-01T02:11:08;0.90;;;0.60;;
35977;SDS011;22056;0.000;0.000;2023-03-01T02:13:34;1.13;;;0.63;;
35977;SDS011;22056;0.000;0.000;2023-03-01T02:16:05;1.85;;;0.57;;
35977;SDS011;22056;0.000;0.000;2023-03-01T02:18:33;1.73;;;0.43;;
35977;SDS011;22056;0.000;0.000;2023-03-01T02:23:31;1.08;;;0.50;;
35977;SDS011;22056;0.000;0.000;2023-03-01T02:28:33;3.58;;;0.60;;
35977;SDS011;22056;0.000;0.000;2023-03-01T02:31:00;0.88;;;0.60;;
35977;SDS011;22056;0.000;0.000;2023-03-01T02:33:45;1.63;;;0.60;;
35977;SDS011;22056;0.000;0.000;2023-03-01T02:36:26;0.93;;;0.43;;
35977;SDS011;22056;0.000;0.000;2023-03-01T02:38:56;1.60;;;0.40;;
35977;SDS011;22056;0.000;0.000;2023-03-01T02:41:22;0.57;;;0.57;;
35977;SDS011;22056;0.000;0.000;2023-03-01T02:43:51;1.67;;;0.57;;
35977;SDS011;22056;0.000;0.000;2023-03-01T02:46:18;0.82;;;0.50;;
35977;SDS011;22056;0.000;0.000;2023-03-01T02:48:48;1.25;;;0.50;;
35977;SDS011;22056;0.000;0.000;2023-03-01T02:52:00;1.08;;;0.60;;
35977;SDS011;22056;0.000;0.000;2023-03-01T02:54:24;1.05;;;0.73;;
35977;SDS011;22056;0.000;0.000;2023-03-01T02:56:51;1.27;;;0.60;;
35977;SDS011;22056;0.000;0.000;2023-03-01T02:59:18;1.55;;;0.40;;
35977;SDS011;22056;0.000;0.000;2023-03-01T03:01:45;0.52;;;0.32;;
35977;SDS011;22056;0.000;0.000;2023-03-01T03:04:13;0.80;;;0.50;;
35977;SDS011;22056;0.000;0.000;2023-03-01T03:06:43;0.55;;;0.40;;
35977;SDS011;22056;0.000;0.000;2023-03-01T03:09:09;0.75;;;0.50;;
35977;SDS011;22056;0.000;0.000;2023-03-01T03:11:36;1.10;;;0.40;;
35977;SDS011;22056;0.000;0.000;2023-03-01T03:14:04;0.93;;;0.70;;
35977;SDS011;22056;0.000;0.000;2023-03-01T03:16:30;0.65;;;0.47;;
35977;SDS011;22056;0.000;0.000;2023-03-01T03:18:57;0.57;;;0.40;;
35977;SDS011;22056;0.000;0.000;2023-03-01T03:21:30;0.60;;;0.40;;
35977;SDS011;22056;0.000;0.000;2023-03-01T03:23:56;0.55;;;0.40;;
35977;SDS011;22056;0.000;0.000;2023-03-01T03:26:23;1.00;;;0.50;;
35977;SDS011;22056;0.000;0.000;2023-03-01T03:28:49;0.70;;;0.50;;
35977;SDS011;22056;0.000;0.000;2023-03-01T03:31:15;0.45;;;0.40;;
35977;SDS011;22056;0.000;0.000;2023-03-01T03:33:41;0.70;;;0.50;;
35977;SDS011;22056;0.000;0.000;2023-03-01T03:36:07;1.20;;;0.50;;
35977;SDS011;22056;0.000;0.000;2023-03-01T03:38:43;0.70;;;0.40;;
35977;SDS011;22056;0.000;0.000;2023-03-01T03:41:10;0.50;;;0.30;;
35977;SDS011;22056;0.000;0.000;2023-03-01T03:43:37;1.48;;;0.40;;
35977;SDS011;22056;0.000;0.000;2023-03-01T03:46:03;1.20;;;0.45;;
35977;SDS011;22056;0.000;0.000;2023-03-01T03:48:31;0.50;;;0.30;;
35977;SDS011;22056;0.000;0.000;2023-03-01T03:50:58;0.70;;;0.50;;
35977;SDS011;22056;0.000;0.000;2023-03-01T03:53:26;0.43;;;0.38;;
35977;SDS011;22056;0.000;0.000;2023-03-01T03:55:52;0.50;;;0.43;;
35977;SDS011;22056;0.000;0.000;2023-03-01T03:58:19;0.75;;;0.50;;
35977;SDS011;22056;0.000;0.000;2023-03-01T04:00:46;0.90;;;0.60;;
35977;SDS011;22056;0.000;0.000;2023-03-01T04:03:14;0.40;;;0.30;;
35977;SDS011;22056;0.000;0.000;2023-03-01T04:05:40;0.90;;;0.43;;
35977;SDS011;22056;0.000;0.000;2023-03-01T04:08:07;1.30;;;0.50;;
35977;SDS011;22056;0.000;0.000;2023-03-01T04:10:43;0.50;;;0.40;;
35977;SDS011;22056;0.000;0.000;2023-03-01T04:13:14;1.20;;;0.63;;
35977;SDS011;22056;0.000;0.000;2023-03-01T04:15:40;0.40;;;0.38;;
35977;SDS011;22056;0.000;0.000;2023-03-01T04:18:08;1.38;;;0.40;;
35977;SDS011;22056;0.000;0.000;2023-03-01T04:20:35;1.67;;;0.43;;
35977;SDS011;22056;0.000;0.000;2023-03-01T04:23:03;0.90;;;0.60;;
35977;SDS011;22056;0.000;0.000;2023-03-01T04:25:37;0.30;;;0.30;;
35977;SDS011;22056;0.000;0.000;2023-03-01T04:28:03;0.40;;;0.40;;
35977;SDS011;22056;0.000;0.000;2023-03-01T04:30:29;0.63;;;0.40;;
35977;SDS011;22056;0.000;0.000;2023-03-01T04:33:04;0.82;;;0.50;;
35977;SDS011;22056;0.000;0.000;2023-03-01T04:35:31;0.50;;;0.47;;
35977;SDS011;22056;0.000;0.000;2023-03-01T04:37:57;0.60;;;0.32;;
35977;SDS011;22056;0.000;0.000;2023-03-01T04:40:24;0.70;;;0.40;;
35977;SDS011;22056;0.000;0.000;2023-03-01T04:42:50;0.55;;;0.30;;
35977;SDS011;22056;0.000;0.000;2023-03-01T04:45:16;0.70;;;0.50;;
35977;SDS011;22056;0.000;0.000;2023-03-01T04:47:43;0.60;;;0.40;;
35977;SDS011;22056;0.000;0.000;2023-03-01T04:50:10;0.85;;;0.60;;
35977;SDS011;22056;0.000;0.000;2023-03-01T04:52:36;0.63;;;0.47;;
35977;SDS011;22056;0.000;0.000;2023-03-01T04:55:03;0.90;;;0.50;;
35977;SDS011;22056;0.000;0.000;2023-03-01T04:57:30;0.52;;;0.40;;
35977;SDS011;22056;0.000;0.000;2023-03-01T04:59:56;0.70;;;0.55;;
35977;SDS011;22056;0.000;0.000;2023-03-01T05:02:23;1.05;;;0.45;;
35977;SDS011;22056;0.000;0.000;2023-03-01T05:04:49;0.57;;;0.50;;
35977;SDS011;22056;0.000;0.000;2023-03-01T05:07:15;0.63;;;0.40;;
35977;SDS011;22056;0.000;0.000;2023-03-01T05:09:47;0.63;;;0.40;;
35977;SDS011;22056;0.000;0.000;2023-03-01T05:12:14;0.90;;;0.40;;
35977;SDS011;22056;0.000;0.000;2023-03-01T05:14:40;1.58;;;0.40;;
35977;SDS011;22056;0.000;0.000;2023-03-01T05:17:07;0.88;;;0.60;;
35977;SDS011;22056;0.000;0.000;2023-03-01T05:19:33;1.13;;;0.47;;
35977;SDS011;22056;0.000;0.000;2023-03-01T05:21:59;1.05;;;0.60;;
35977;SDS011;22056;0.000;0.000;2023-03-01T05:24:29;2.17;;;0.80;;
35977;SDS011;22056;0.000;0.000;2023-03-01T05:26:55;1.55;;;0.50;;
35977;SDS011;22056;0.000;0.000;2023-03-01T05:29:22;0.80;;;0.50;;
35977;SDS011;22056;0.000;0.000;2023-03-01T05:31:53;2.17;;;0.55;;
35977;SDS011;22056;0.000;0.000;2023-03-01T05:34:22;0.95;;;0.50;;
35977;SDS011;22056;0.000;0.000;2023-03-01T05:36:49;1.85;;;0.68;;
35977;SDS011;22056;0.000;0.000;2023-03-01T05:39:18;1.35;;;0.50;;
35977;SDS011;22056;0.000;0.000;2023-03-01T05:41:46;0.95;;;0.43;;
35977;SDS011;22056;0.000;0.000;2023-03-01T05:44:13;1.88;;;0.52;;
35977;SDS011;22056;0.000;0.000;2023-03-01T05:46:39;1.00;;;0.47;;
35977;SDS011;22056;0.000;0.000;2023-03-01T05:49:05;1.95;;;0.60;;
35977;SDS011;22056;0.000;0.000;2023-03-01T05:51:31;3.22;;;0.68;;
35977;SDS011;22056;0.000;0.000;2023-03-01T05:53:58;1.13;;;0.55;;
35977;SDS011;22056;0.000;0.000;2023-03-01T05:56:25;3.30;;;0.70;;
35977;SDS011;22056;0.000;0.000;2023-03-01T05:58:51;1.70;;;0.60;;
35977;SDS011;22056;0.000;0.000;2023-03-01T06:01:17;1.52;;;0.80;;
35977;SDS011;22056;0.000;0.000;2023-03-01T06:03:43;1.95;;;0.68;;
35977;SDS011;22056;0.000;0.000;2023-03-01T06:06:09;2.60;;;0.65;;
35977;SDS011;22056;0.000;0.000;2023-03-01T06:08:35;3.53;;;0.73;;
35977;SDS011;22056;0.000;0.000;2023-03-01T06:11:01;1.10;;;0.70;;
35977;SDS011;22056;0.000;0.000;2023-03-01T06:13:27;1.17;;;0.57;;
35977;SDS011;22056;0.000;0.000;2023-03-01T06:15:54;2.45;;;0.60;;
35977;SDS011;22056;0.000;0.000;2023-03-01T06:18:20;1.73;;;0.60;;
35977;SDS011;22056;0.000;0.000;2023-03-01T06:20:52;1.75;;;0.65;;
35977;SDS011;22056;0.000;0.000;2023-03-01T06:23:18;3.80;;;1.02;;
35977;SDS011;22056;0.000;0.000;2023-03-01T06:25:44;2.40;;;0.70;;
35977;SDS011;22056;0.000;0.000;2023-03-01T06:28:10;2.38;;;0.60;;
35977;SDS011;22056;0.000;0.000;2023-03-01T06:30:37;7.30;;;0.70;;
35977;SDS011;22056;0.000;0.000;2023-03-01T06:33:03;3.03;;;0.93;;
35977;SDS011;22056;0.000;0.000;2023-03-01T06:35:29;2.00;;;0.50;;
35977;SDS011;22056;0.000;0.000;2023-03-01T06:37:56;0.90;;;0.52;;
35977;SDS011;22056;0.000;0.000;2023-03-01T06:40:23;2.08;;;0.60;;
35977;SDS011;22056;0.000;0.000;2023-03-01T06:42:49;2.88;;;0.80;;
35977;SDS011;22056;0.000;0.000;2023-03-01T06:45:16;1.23;;;0.70;;
35977;SDS011;22056;0.000;0.000;2023-03-01T06:47:42;1.40;;;0.60;;
35977;SDS011;22056;0.000;0.000;2023-03-01T06:50:09;2.05;;;0.60;;
35977;SDS011;22056;0.000;0.000;2023-03-01T06:52:35;1.40;;;0.80;;
35977;SDS011;22056;0.000;0.000;2023-03-01T06:55:02;1.05;;;0.65;;
35977;SDS011;22056;0.000;0.000;2023-03-01T06:57:28;2.10;;;0.70;;
35977;SDS011;22056;0.000;0.000;2023-03-01T06:59:54;4.65;;;0.73;;
35977;SDS011;22056;0.000;0.000;2023-03-01T07:02:21;1.15;;;0.60;;
35977;SDS011;22056;0.000;0.000;2023-03-01T07:04:48;2.92;;;0.80;;
35977;SDS011;22056;0.000;0.000;2023-03-01T07:07:15;1.20;;;0.52;;
35977;SDS011;22056;0.000;0.000;2023-03-01T07:09:43;3.13;;;1.08;;
35977;SDS011;22056;0.000;0.000;2023-03-01T07:12:09;3.20;;;0.80;;
35977;SDS011;22056;0.000;0.000;2023-03-01T07:14:35;2.63;;;0.80;;
35977;SDS011;22056;0.000;0.000;2023-03-01T07:17:01;3.50;;;0.85;;
35977;SDS011;22056;0.000;0.000;2023-03-01T07:19:27;2.05;;;0.65;;
35977;SDS011;22056;0.000;0.000;2023-03-01T07:21:53;2.15;;;0.70;;
35977;SDS011;22056;0.000;0.000;2023-03-01T07:24:20;2.17;;;0.80;;
35977;SDS011;22056;0.000;0.000;2023-03-01T07:26:50;3.15;;;0.65;;
35977;SDS011;22056;0.000;0.000;2023-03-01T07:29:16;2.00;;;0.73;;
35977;SDS011;22056;0.000;0.000;2023-03-01T07:31:42;3.10;;;0.82;;
35977;SDS011;22056;0.000;0.000;2023-03-01T07:34:08;1.50;;;0.60;;
35977;SDS011;22056;0.000;0.000;2023-03-01T07:36:35;1.98;;;0.85;;
35977;SDS011;22056;0.000;0.000;2023-03-01T07:39:02;1.15;;;0.80;;
35977;SDS011;22056;0.000;0.000;2023-03-01T07:41:28;1.83;;;0.70;;
35977;SDS011;22056;0.000;0.000;2023-03-01T07:43:54;6.72;;;0.98;;
35977;SDS011;22056;0.000;0.000;2023-03-01T07:46:20;3.30;;;0.77;;
35977;SDS011;22056;0.000;0.000;2023-03-01T07:48:47;1.52;;;0.82;;
35977;SDS011;22056;0.000;0.000;2023-03-01T07:51:13;1.00;;;0.40;;
35977;SDS011;22056;0.000;0.000;2023-03-01T07:53:39;2.92;;;0.80;;
35977;SDS011;22056;0.000;0.000;2023-03-01T07:56:07;1.75;;;0.70;;
35977;SDS011;22056;0.000;0.000;2023-03-01T07:58:34;1.58;;;0.70;;
35977;SDS011;22056;0.000;0.000;2023-03-01T08:01:07;2.00;;;0.90;;
35977;SDS011;22056;0.000;0.000;2023-03-01T08:03:34;1.95;;;0.65;;
35977;SDS011;22056;0.000;0.000;2023-03-01T08:06:01;2.55;;;0.50;;
35977;SDS011;22056;0.000;0.000;2023-03-01T08:08:28;2.13;;;0.80;;
35977;SDS011;22056;0.000;0.000;2023-03-01T08:10:58;4.63;;;0.80;;
35977;SDS011;22056;0.000;0.000;2023-03-01T08:13:26;4.85;;;0.75;;
35977;SDS011;22056;0.000;0.000;2023-03-01T08:15:53;1.88;;;0.75;;
35977;SDS011;22056;0.000;0.000;2023-03-01T08:18:20;1.33;;;0.80;;
35977;SDS011;22056;0.000;0.000;2023-03-01T08:20:47;1.70;;;0.60;;
35977;SDS011;22056;0.000;0.000;2023-03-01T08:23:13;3.70;;;0.65;;
35977;SDS011;22056;0.000;0.000;2023-03-01T08:25:40;3.25;;;0.80;;
35977;SDS011;22056;0.000;0.000;2023-03-01T08:28:06;3.25;;;0.80;;
35977;SDS011;22056;0.000;0.000;2023-03-01T08:30:32;2.90;;;0.60;;
35977;SDS011;22056;0.000;0.000;2023-03-01T08:32:58;2.28;;;0.90;;
35977;SDS011;22056;0.000;0.000;2023-03-01T08:35:25;2.33;;;0.90;;
35977;SDS011;22056;0.000;0.000;2023-03-01T08:37:51;1.73;;;0.88;;
35977;SDS011;22056;0.000;0.000;2023-03-01T08:40:18;4.07;;;0.82;;
35977;SDS011;22056;0.000;0.000;2023-03-01T08:42:44;1.65;;;0.90;;
35977;SDS011;22056;0.000;0.000;2023-03-01T08:45:11;4.88;;;0.88;;
35977;SDS011;22056;0.000;0.000;2023-03-01T08:47:39;3.15;;;0.90;;
35977;SDS011;22056;0.000;0.000;2023-03-01T08:50:05;2.67;;;0.77;;
35977;SDS011;22056;0.000;0.000;2023-03-01T08:52:32;6.00;;;0.90;;
35977;SDS011;22056;0.000;0.000;2023-03-01T08:54:59;3.65;;;1.17;;
35977;SDS011;22056;0.000;0.000;2023-03-01T08:57:26;2.70;;;0.85;;
35977;SDS011;22056;0.000;0.000;2023-03-01T08:59:53;4.32;;;1.05;;
35977;SDS011;22056;0.000;0.000;2023-03-01T09:02:21;3.30;;;0.90;;
35977;SDS011;22056;0.000;0.000;2023-03-01T09:04:47;3.80;;;0.80;;
35977;SDS011;22056;0.000;0.000;2023-03-01T09:07:13;3.47;;;0.98;;
35977;SDS011;22056;0.000;0.000;2023-03-01T09:09:40;2.63;;;0.88;;
35977;SDS011;22056;0.000;0.000;2023-03-01T09:12:07;3.08;;;0.90;;
35977;SDS011;22056;0.000;0.000;2023-03-01T09:14:33;1.63;;;0.68;;
35977;SDS011;22056;0.000;0.000;2023-03-01T09:16:59;6.20;;;1.02;;
35977;SDS011;22056;0.000;0.000;2023-03-01T09:19:28;2.70;;;1.10;;
35977;SDS011;22056;0.000;0.000;2023-03-01T09:21:54;3.78;;;0.68;;
35977;SDS011;22056;0.000;0.000;2023-03-01T09:24:21;2.90;;;0.90;;
35977;SDS011;22056;0.000;0.000;2023-03-01T09:26:48;1.88;;;0.70;;
35977;SDS011;22056;0.000;0.000;2023-03-01T09:29:15;4.13;;;0.90;;
35977;SDS011;22056;0.000;0.000;2023-03-01T09:31:41;4.10;;;0.70;;
35977;SDS011;22056;0.000;0.000;2023-03-01T09:34:09;3.17;;;0.80;;
35977;SDS011;22056;0.000;0.000;2023-03-01T09:36:36;1.73;;;0.80;;
35977;SDS011;22056;0.000;0.000;2023-03-01T09:39:03;1.63;;;0.73;;
35977;SDS011;22056;0.000;0.000;2023-03-01T09:41:49;5.80;;;1.00;;
35977;SDS011;22056;0.000;0.000;2023-03-01T09:44:21;3.42;;;0.95;;
35977;SDS011;22056;0.000;0.000;2023-03-01T09:46:50;2.50;;;0.73;;
35977;SDS011;22056;0.000;0.000;2023-03-01T09:49:23;1.60;;;0.70;;
35977;SDS011;22056;0.000;0.000;2023-03-01T09:54:21;3.10;;;1.00;;
35977;SDS011;22056;0.000;0.000;2023-03-01T09:56:59;5.50;;;0.80;;
35977;SDS011;22056;0.000;0.000;2023-03-01T10:00:03;1.42;;;0.70;;
35977;SDS011;22056;0.000;0.000;2023-03-01T10:04:53;3.97;;;1.10;;
35977;SDS011;22056;0.000;0.000;2023-03-01T10:09:53;1.75;;;0.63;;
35977;SDS011;22056;0.000;0.000;2023-03-01T10:12:20;2.50;;;0.68;;
35977;SDS011;22056;0.000;0.000;2023-03-01T10:15:11;3.83;;;1.15;;
35977;SDS011;22056;0.000;0.000;2023-03-01T10:20:25;2.05;;;0.73;;
35977;SDS011;22056;0.000;0.000;2023-03-01T10:22:50;2.55;;;1.00;;
35977;SDS011;22056;0.000;0.000;2023-03-01T10:28:05;1.85;;;0.77;;
35977;SDS011;22056;0.000;0.000;2023-03-01T10:30:37;1.85;;;0.77;;
35977;SDS011;22056;0.000;0.000;2023-03-01T10:33:08;3.42;;;0.73;;
35977;SDS011;22056;0.000;0.000;2023-03-01T10:35:39;2.97;;;0.80;;
35977;SDS011;22056;0.000;0.000;2023-03-01T10:38:07;3.05;;;0.82;;
35977;SDS011;22056;0.000;0.000;2023-03-01T10:40:34;3.20;;;0.90;;
35977;SDS011;22056;0.000;0.000;2023-03-01T10:43:03;1.67;;;0.68;;
35977;SDS011;22056;0.000;0.000;2023-03-01T10:48:03;2.30;;;0.73;;
35977;SDS011;22056;0.000;0.000;2023-03-01T10:50:29;4.78;;;0.90;;
35977;SDS011;22056;0.000;0.000;2023-03-01T10:52:59;3.25;;;0.80;;
35977;SDS011;22056;0.000;0.000;2023-03-01T10:55:31;5.25;;;0.82;;
35977;SDS011;22056;0.000;0.000;2023-03-01T11:00:44;3.08;;;0.88;;
35977;SDS011;22056;0.000;0.000;2023-03-01T11:03:13;4.88;;;0.70;;
35977;SDS011;22056;0.000;0.000;2023-03-01T11:06:19;1.92;;;0.63;;
35977;SDS011;22056;0.000;0.000;2023-03-01T11:11:18;2.17;;;0.70;;
35977;SDS011;22056;0.000;0.000;2023-03-01T11:19:06;8.25;;;1.65;;
35977;SDS011;22056;0.000;0.000;2023-03-01T11:24:12;3.72;;;0.93;;
35977;SDS011;22056;0.000;0.000;2023-03-01T11:26:39;5.03;;;0.82;;
35977;SDS011;22056;0.000;0.000;2023-03-01T11:29:11;9.20;;;1.13;;
35977;SDS011;22056;0.000;0.000;2023-03-01T11:31:38;5.23;;;0.97;;
35977;SDS011;22056;0.000;0.000;2023-03-01T11:34:13;3.58;;;0.93;;
35977;SDS011;22056;0.000;0.000;2023-03-01T11:36:46;2.85;;;0.80;;
35977;SDS011;22056;0.000;0.000;2023-03-01T11:42:04;4.93;;;0.90;;
35977;SDS011;22056;0.000;0.000;2023-03-01T11:44:33;3.20;;;0.93;;
35977;SDS011;22056;0.000;0.000;2023-03-01T11:55:17;4.90;;;0.90;;
35977;SDS011;22056;0.000;0.000;2023-03-01T12:08:08;3.75;;;0.85;;
35977;SDS011;22056;0.000;0.000;2023-03-01T12:10:57;3.33;;;0.80;;
35977;SDS011;22056;0.000;0.000;2023-03-01T12:13:51;7.78;;;0.90;;
35977;SDS011;22056;0.000;0.000;2023-03-01T12:26:13;5.68;;;0.90;;
35977;SDS011;22056;0.000;0.000;2023-03-01T12:31:38;1.52;;;0.70;;
35977;SDS011;22056;0.000;0.000;2023-03-01T12:34:23;3.38;;;0.90;;
35977;SDS011;22056;0.000;0.000;2023-03-01T12:41:53;2.60;;;0.70;;
35977;SDS011;22056;0.000;0.000;2023-03-01T12:49:24;4.95;;;0.80;;
35977;SDS011;22056;0.000;0.000;2023-03-01T12:51:59;3.80;;;0.70;;
35977;SDS011;22056;0.000;0.000;2023-03-01T12:54:29;1.65;;;0.70;;
35977;SDS011;22056;0.000;0.000;2023-03-01T12:56:56;5.63;;;0.85;;
35977;SDS011;22056;0.000;0.000;2023-03-01T12:59:36;2.15;;;0.82;;
35977;SDS011;22056;0.000;0.000;2023-03-01T13:02:23;4.15;;;1.08;;
35977;SDS011;22056;0.000;0.000;2023-03-01T13:05:06;1.90;;;1.10;;
35977;SDS011;22056;0.000;0.000;2023-03-01T13:15:42;6.70;;;1.15;;
35977;SDS011;22056;0.000;0.000;2023-03-01T13:20:34;3.33;;;1.08;;
35977;SDS011;22056;0.000;0.000;2023-03-01T13:31:06;2.42;;;0.80;;
35977;SDS011;22056;0.000;0.000;2023-03-01T13:33:55;3.05;;;1.13;;
35977;SDS011;22056;0.000;0.000;2023-03-01T13:46:55;4.07;;;1.15;;
35977;SDS011;22056;0.000;0.000;2023-03-01T13:49:23;7.20;;;1.00;;
35977;SDS011;22056;0.000;0.000;2023-03-01T13:51:52;15.95;;;1.55;;
35977;SDS011;22056;0.000;0.000;2023-03-01T13:54:24;16.60;;;1.90;;
35977;SDS011;22056;0.000;0.000;2023-03-01T13:56:51;13.98;;;2.00;;
35977;SDS011;22056;0.000;0.000;2023-03-01T13:59:18;4.75;;;1.08;;
35977;SDS011;22056;0.000;0.000;2023-03-01T14:01:44;5.75;;;0.95;;
35977;SDS011;22056;0.000;0.000;2023-03-01T14:04:24;6.22;;;0.95;;
35977;SDS011;22056;0.000;0.000;2023-03-01T14:07:08;2.80;;;0.60;;
35977;SDS011;22056;0.000;0.000;2023-03-01T14:09:35;2.35;;;0.90;;
35977;SDS011;22056;0.000;0.000;2023-03-01T14:14:54;3.38;;;0.73;;
35977;SDS011;22056;0.000;0.000;2023-03-01T14:17:35;2.13;;;0.80;;
35977;SDS011;22056;0.000;0.000;2023-03-01T14:20:46;3.60;;;0.98;;
35977;SDS011;22056;0.000;0.000;2023-03-01T14:22:54;6.00;;;1.00;;
35977;SDS011;22056;0.000;0.000;2023-03-01T14:25:29;4.00;;;0.80;;
35977;SDS011;22056;0.000;0.000;2023-03-01T14:27:57;4.32;;;1.05;;
35977;SDS011;22056;0.000;0.000;2023-03-01T14:30:24;2.80;;;0.88;;
35977;SDS011;22056;0.000;0.000;2023-03-01T14:32:52;1.88;;;0.85;;
35977;SDS011;22056;0.000;0.000;2023-03-01T14:35:19;2.72;;;1.08;;
35977;SDS011;22056;0.000;0.000;2023-03-01T14:37:45;3.10;;;0.68;;
35977;SDS011;22056;0.000;0.000;2023-03-01T14:40:23;1.85;;;0.90;;
35977;SDS011;22056;0.000;0.000;2023-03-01T14:42:50;3.33;;;1.10;;
35977;SDS011;22056;0.000;0.000;2023-03-01T14:45:16;2.13;;;0.93;;
35977;SDS011;22056;0.000;0.000;2023-03-01T14:47:43;1.92;;;0.80;;
35977;SDS011;22056;0.000;0.000;2023-03-01T14:50:20;3.72;;;0.90;;
35977;SDS011;22056;0.000;0.000;2023-03-01T14:52:50;3.22;;;0.95;;
35977;SDS011;22056;0.000;0.000;2023-03-01T14:57:44;5.07;;;1.02;;
35977;SDS011;22056;0.000;0.000;2023-03-01T15:00:13;7.15;;;1.50;;
35977;SDS011;22056;0.000;0.000;2023-03-01T15:02:42;3.88;;;1.08;;
35977;SDS011;22056;0.000;0.000;2023-03-01T15:05:08;3.10;;;1.08;;
35977;SDS011;22056;0.000;0.000;2023-03-01T15:07:36;2.70;;;1.00;;
35977;SDS011;22056;0.000;0.000;2023-03-01T15:10:05;3.65;;;1.00;;
35977;SDS011;22056;0.000;0.000;2023-03-01T15:14:58;5.03;;;1.08;;
35977;SDS011;22056;0.000;0.000;2023-03-01T15:17:34;4.88;;;1.02;;
35977;SDS011;22056;0.000;0.000;2023-03-01T15:20:01;2.63;;;1.13;;
35977;SDS011;22056;0.000;0.000;2023-03-01T15:22:29;2.53;;;0.82;;
35977;SDS011;22056;0.000;0.000;2023-03-01T15:24:55;3.72;;;1.00;;
35977;SDS011;22056;0.000;0.000;2023-03-01T15:27:23;3.35;;;0.95;;
35977;SDS011;22056;0.000;0.000;2023-03-01T15:29:50;6.43;;;1.05;;
35977;SDS011;22056;0.000;0.000;2023-03-01T15:32:24;2.63;;;0.80;;
35977;SDS011;22056;0.000;0.000;2023-03-01T15:34:50;5.40;;;1.00;;
35977;SDS011;22056;0.000;0.000;2023-03-01T15:40:02;3.38;;;1.00;;
35977;SDS011;22056;0.000;0.000;2023-03-01T15:47:41;4.70;;;1.20;;
35977;SDS011;22056;0.000;0.000;2023-03-01T15:50:23;3.80;;;0.85;;
35977;SDS011;22056;0.000;0.000;2023-03-01T15:52:50;2.20;;;1.10;;
35977;SDS011;22056;0.000;0.000;2023-03-01T15:57:49;2.85;;;0.88;;
35977;SDS011;22056;0.000;0.000;2023-03-01T16:00:15;4.85;;;0.95;;
35977;SDS011;22056;0.000;0.000;2023-03-01T16:02:42;3.42;;;0.98;;
35977;SDS011;22056;0.000;0.000;2023-03-01T16:05:17;5.90;;;1.02;;
35977;SDS011;22056;0.000;0.000;2023-03-01T16:07:43;4.53;;;1.15;;
35977;SDS011;22056;0.000;0.000;2023-03-01T16:10:09;4.43;;;1.00;;
35977;SDS011;22056;0.000;0.000;2023-03-01T16:12:36;7.28;;;1.20;;
35977;SDS011;22056;0.000;0.000;2023-03-01T16:15:04;3.65;;;1.10;;
35977;SDS011;22056;0.000;0.000;2023-03-01T16:17:30;3.70;;;1.00;;
35977;SDS011;22056;0.000;0.000;2023-03-01T16:19:57;6.00;;;1.05;;
35977;SDS011;22056;0.000;0.000;2023-03-01T16:22:23;3.15;;;1.08;;
35977;SDS011;22056;0.000;0.000;2023-03-01T16:24:52;5.00;;;1.02;;
35977;SDS011;22056;0.000;0.000;2023-03-01T16:27:18;1.85;;;0.80;;
35977;SDS011;22056;0.000;0.000;2023-03-01T16:29:45;2.85;;;0.95;;
35977;SDS011;22056;0.000;0.000;2023-03-01T16:32:11;3.88;;;1.15;;
35977;SDS011;22056;0.000;0.000;2023-03-01T16:34:37;3.65;;;1.33;;
35977;SDS011;22056;0.000;0.000;2023-03-01T16:37:03;2.33;;;0.80;;
35977;SDS011;22056;0.000;0.000;2023-03-01T16:39:30;1.02;;;0.80;;
35977;SDS011;22056;0.000;0.000;2023-03-01T16:41:56;3.67;;;0.93;;
35977;SDS011;22056;0.000;0.000;2023-03-01T16:44:22;1.80;;;0.88;;
35977;SDS011;22056;0.000;0.000;2023-03-01T16:46:48;2.15;;;0.88;;
35977;SDS011;22056;0.000;0.000;2023-03-01T16:49:14;2.40;;;1.00;;
35977;SDS011;22056;0.000;0.000;2023-03-01T16:51:40;2.05;;;0.90;;
35977;SDS011;22056;0.000;0.000;2023-03-01T16:54:06;3.40;;;0.82;;
35977;SDS011;22056;0.000;0.000;2023-03-01T16:56:32;3.58;;;1.15;;
35977;SDS011;22056;0.000;0.000;2023-03-01T16:59:02;5.40;;;1.15;;
35977;SDS011;22056;0.000;0.000;2023-03-01T17:01:28;2.90;;;0.80;;
35977;SDS011;22056;0.000;0.000;2023-03-01T17:04:00;4.38;;;1.33;;
35977;SDS011;22056;0.000;0.000;2023-03-01T17:06:26;4.53;;;0.80;;
35977;SDS011;22056;0.000;0.000;2023-03-01T17:08:52;2.22;;;0.98;;
35977;SDS011;22056;0.000;0.000;2023-03-01T17:11:19;3.22;;;0.88;;
35977;SDS011;22056;0.000;0.000;2023-03-01T17:13:45;2.58;;;1.08;;
35977;SDS011;22056;0.000;0.000;2023-03-01T17:16:13;2.58;;;0.80;;
35977;SDS011;22056;0.000;0.000;2023-03-01T17:18:39;2.20;;;0.90;;